< Typhoon 198816 1988 Season Typhoon 198818 >
Typhoon 198817 (ULEKI)
General InformationTrack Information on Google MapsDetailed Wind InformationList of All Images || Disaster Info.ResourceGoogle EarthGE AnimationAtom FeedGeoJSON
Detalied Best Track (Time Zone = UTC)
Year Month Day Hour Lat. Long. Pressure (hPa) Wind (kt) Class Image Chart
1988 9 8 06 25.3 180.2 945 85 7 Image Chart
1988 9 8 12 25.5 179.0 945 85 5 Image Chart
1988 9 8 18 26.2 177.7 945 85 5 Image Chart
1988 9 9 00 26.6 176.4 945 80 5 Image Chart
1988 9 9 06 27.2 175.5 950 80 5 Image Chart
1988 9 9 12 27.5 174.5 950 80 5 Image Chart
1988 9 9 18 27.5 173.5 950 75 5 Image Chart
1988 9 10 00 27.6 173.0 950 75 5 Image Chart
1988 9 10 06 27.7 172.3 950 75 5 Image Chart
1988 9 10 12 28.0 171.7 950 70 5 Image Chart
1988 9 10 18 28.6 171.2 955 70 5 Image Chart
1988 9 11 00 29.2 170.7 960 75 5 Image Chart
1988 9 11 06 29.7 170.2 965 75 5 Image Chart
1988 9 11 12 30.2 169.7 970 75 5 Image Chart
1988 9 11 18 30.5 169.4 975 70 5 Image Chart
1988 9 12 00 30.8 169.1 980 65 5 Image Chart
1988 9 12 06 31.0 168.6 985 60 4 Image Chart
1988 9 12 12 31.2 167.8 990 60 4 Image Chart
1988 9 12 18 31.5 167.2 992 60 4 Image Chart
1988 9 13 00 31.0 166.5 996 55 4 Image Chart
1988 9 13 06 30.9 165.3 1000 50 4 Image Chart
1988 9 13 12 32.5 165.4 1004 45 3 Image Chart
1988 9 13 18 33.5 164.0 1006 0 2 Image Chart
1988 9 14 00 33.5 163.0 1008 0 2 Image Chart
1988 9 14 06 34.0 162.5 1012 0 2 Image Chart
1988 9 14 12 34.5 162.0 1014 0 2 Image Chart
1988 9 14 18 35.5 161.5 1014 0 2 Image Chart
1988 9 15 00 36.5 161.0 1014 0 2 Image Chart
1988 9 15 06 38.0 161.5 1014 0 2 Image Chart
1988 9 15 12 39.0 163.0 1014 0 2 Image Chart
1988 9 15 18 39.5 165.0 1012 0 2 Image Chart
1988 9 16 00 40.0 168.0 1012 0 2 Image Chart
1988 9 16 06 40.5 170.5 1008 0 6 Image Chart
1988 9 16 12 41.0 172.0 1008 0 6 Image Chart
1988 9 16 18 41.0 175.0 1008 0 6 Image Chart
1988 9 17 00 41.0 178.0 1008 0 6 Image Chart
Japan Meteorological Agency Best Track Data | Correction Date : 2013-11-22
< Typhoon 198816 1988 Season Typhoon 198818 >

Help